Time;durP1;ratioP1;P1;durP2;ratioP2;P2;SDS_P1;SDS_P2;PMS_P1;PMS_P2;Temp;Humidity;BMP_temperature;BMP_pressure;BME280_temperature;BME280_humidity;BME280_pressure;Samples;Min_cycle;Max_cycle;Signal;HPM_P1;HPM_P2
2023/10/13 00:00:58;;;;;;;5.13;2.40;;;11.00;99.90;;;;;;5031827;28;20025;-82
2023/10/13 00:03:25;;;;;;;2.95;2.05;;;11.00;99.90;;;;;;5034102;28;20032;-80
2023/10/13 00:05:52;;;;;;;5.55;3.00;;;11.00;99.90;;;;;;5032380;28;20029;-82
2023/10/13 00:08:20;;;;;;;3.20;2.08;;;11.00;99.90;;;;;;5035051;28;20078;-82
2023/10/13 00:10:47;;;;;;;3.15;1.88;;;11.00;99.90;;;;;;5030329;28;20024;-82
2023/10/13 00:13:15;;;;;;;4.40;1.92;;;11.10;99.90;;;;;;5033449;28;20511;-82
2023/10/13 00:18:44;;;;;;;6.93;3.38;;;11.10;99.90;;;;;;5033230;28;20037;-81
2023/10/13 00:21:13;;;;;;;9.27;2.63;;;11.10;99.90;;;;;;5027816;28;20029;-82
2023/10/13 00:23:52;;;;;;;8.05;2.30;;;11.10;99.90;;;;;;5028708;28;20104;-82
2023/10/13 00:26:18;;;;;;;8.73;2.67;;;11.20;99.90;;;;;;5032783;28;20041;-82
2023/10/13 00:28:47;;;;;;;3.55;1.73;;;11.20;99.90;;;;;;5029892;28;20025;-82
2023/10/13 00:31:14;;;;;;;3.30;2.20;;;11.20;99.90;;;;;;5031720;28;20021;-82
2023/10/13 00:33:41;;;;;;;3.25;1.65;;;11.20;99.90;;;;;;5029876;28;20018;-82
2023/10/13 00:36:08;;;;;;;3.70;2.00;;;11.20;99.90;;;;;;5028528;28;20026;-82
2023/10/13 00:38:37;;;;;;;3.65;2.17;;;11.20;99.90;;;;;;5024718;28;20013;-82
2023/10/13 00:41:12;;;;;;;4.28;2.15;;;11.20;99.90;;;;;;5028802;28;20090;-82
2023/10/13 00:43:45;;;;;;;11.70;2.67;;;11.30;99.90;;;;;;5028980;28;20040;-82
2023/10/13 00:46:13;;;;;;;5.18;2.65;;;11.30;99.90;;;;;;5029856;28;20030;-82
2023/10/13 00:48:43;;;;;;;5.53;2.67;;;11.30;99.90;;;;;;5030102;28;20041;-81
2023/10/13 00:53:56;;;;;;;3.88;2.42;;;11.30;99.90;;;;;;5029393;28;20095;-82
2023/10/13 00:56:26;;;;;;;6.07;2.70;;;11.30;99.90;;;;;;5028914;28;20021;-82
2023/10/13 00:58:53;;;;;;;5.25;2.95;;;11.30;99.90;;;;;;5028546;28;20021;-81
2023/10/13 01:01:29;;;;;;;5.53;2.45;;;11.40;99.90;;;;;;5029633;28;20016;-82
2023/10/13 01:04:05;;;;;;;7.32;3.10;;;11.40;99.90;;;;;;5025892;28;20017;-83
2023/10/13 01:06:31;;;;;;;6.10;2.90;;;11.40;99.90;;;;;;5029639;28;20117;-82
2023/10/13 01:09:12;;;;;;;5.95;2.58;;;11.40;99.90;;;;;;5029447;28;20105;-81
2023/10/13 01:11:46;;;;;;;10.43;3.28;;;11.40;99.90;;;;;;5034311;28;20101;-82
2023/10/13 01:14:14;;;;;;;8.60;4.00;;;11.40;99.90;;;;;;5032654;28;20111;-82
2023/10/13 01:16:43;;;;;;;4.00;3.60;;;11.50;99.90;;;;;;5027077;28;20051;-82
2023/10/13 01:19:19;;;;;;;7.40;3.70;;;11.50;99.90;;;;;;5029574;28;20121;-82
2023/10/13 01:21:48;;;;;;;8.52;3.08;;;11.50;99.90;;;;;;5030486;28;20083;-82
2023/10/13 01:24:18;;;;;;;10.38;4.53;;;11.50;99.90;;;;;;5031015;28;20034;-81
2023/10/13 01:26:44;;;;;;;5.88;3.92;;;11.60;99.90;;;;;;5030332;28;20032;-82
2023/10/13 01:29:14;;;;;;;15.15;4.03;;;11.60;99.90;;;;;;5029556;28;20025;-83
2023/10/13 01:31:47;;;;;;;9.93;5.13;;;11.60;99.90;;;;;;5030477;28;20026;-82
2023/10/13 01:34:21;;;;;;;13.23;4.07;;;11.70;99.90;;;;;;5031146;28;20310;-82
2023/10/13 01:36:55;;;;;;;8.23;5.28;;;11.70;99.90;;;;;;5029792;28;20030;-82
2023/10/13 01:39:26;;;;;;;14.98;5.97;;;11.70;99.90;;;;;;5027820;28;20270;-82
2023/10/13 01:41:55;;;;;;;10.27;4.95;;;11.70;99.90;;;;;;5029509;28;20048;-81
2023/10/13 01:44:27;;;;;;;11.77;5.20;;;11.70;99.90;;;;;;5030257;28;20450;-82
2023/10/13 01:46:53;;;;;;;13.05;5.65;;;11.70;99.90;;;;;;5029982;28;20025;-82
2023/10/13 01:49:21;;;;;;;13.93;5.95;;;11.80;99.90;;;;;;5031115;28;20477;-82
2023/10/13 01:51:47;;;;;;;17.95;7.13;;;11.80;99.90;;;;;;5028323;28;20545;-82
2023/10/13 01:54:15;;;;;;;11.18;5.78;;;11.80;99.90;;;;;;5028631;28;20053;-82
2023/10/13 01:56:44;;;;;;;13.80;6.28;;;11.80;99.90;;;;;;5029532;28;20034;-82
2023/10/13 01:59:12;;;;;;;16.50;7.20;;;11.80;99.90;;;;;;5028931;28;20029;-82
2023/10/13 02:01:39;;;;;;;16.02;6.93;;;11.90;99.90;;;;;;5029177;28;20067;-82
2023/10/13 02:04:06;;;;;;;12.60;6.68;;;11.90;99.90;;;;;;5029180;28;20053;-82
2023/10/13 02:06:33;;;;;;;13.77;6.90;;;11.90;99.90;;;;;;5029694;28;20044;-81
2023/10/13 02:09:05;;;;;;;19.98;7.63;;;11.90;99.90;;;;;;5029673;28;20544;-82
2023/10/13 02:11:37;;;;;;;17.17;6.93;;;12.00;99.90;;;;;;5029533;28;20439;-82
2023/10/13 02:14:03;;;;;;;20.17;7.13;;;12.00;99.90;;;;;;5028578;28;20018;-82
2023/10/13 02:16:28;;;;;;;13.50;6.55;;;12.00;99.90;;;;;;5027998;28;20107;-82
2023/10/13 02:18:57;;;;;;;18.05;8.15;;;12.00;99.90;;;;;;5028580;28;20029;-82
2023/10/13 02:21:31;;;;;;;19.27;7.40;;;12.10;99.90;;;;;;5029269;28;20485;-82
2023/10/13 02:23:59;;;;;;;18.60;8.98;;;12.10;99.90;;;;;;5029044;28;20500;-82
2023/10/13 02:26:32;;;;;;;22.67;9.07;;;12.10;99.90;;;;;;5028988;28;20461;-82
2023/10/13 02:29:07;;;;;;;17.92;8.13;;;12.20;99.90;;;;;;5027699;28;20099;-82
2023/10/13 02:31:35;;;;;;;16.88;8.23;;;12.20;99.90;;;;;;5028570;28;20471;-82
2023/10/13 02:34:06;;;;;;;22.63;10.35;;;12.20;99.90;;;;;;5027498;28;20025;-81
2023/10/13 02:36:37;;;;;;;21.65;9.23;;;12.30;99.90;;;;;;5027599;28;20029;-83
2023/10/13 02:39:07;;;;;;;17.95;10.52;;;12.30;99.90;;;;;;5027747;28;20036;-82
2023/10/13 02:41:36;;;;;;;16.80;8.90;;;12.30;99.90;;;;;;5027539;28;20025;-82
2023/10/13 02:44:06;;;;;;;17.60;8.60;;;12.30;99.90;;;;;;5027713;28;20021;-81
2023/10/13 02:46:36;;;;;;;23.10;9.50;;;12.30;99.90;;;;;;5026532;28;20021;-82
2023/10/13 02:49:11;;;;;;;19.70;10.18;;;12.30;99.90;;;;;;5027334;28;20033;-82
2023/10/13 02:51:43;;;;;;;24.97;10.37;;;12.30;99.90;;;;;;5029782;28;20017;-83
2023/10/13 02:54:12;;;;;;;21.20;9.65;;;12.40;99.90;;;;;;5030774;28;20421;-82
2023/10/13 02:56:57;;;;;;;24.85;9.88;;;12.30;99.90;;;;;;5045907;28;20048;-81
2023/10/13 02:59:55;;;;;;;18.63;10.05;;;12.30;99.90;;;;;;5030454;28;20021;-82
2023/10/13 03:02:25;;;;;;;20.50;10.10;;;12.40;99.90;;;;;;5032627;28;20021;-82
2023/10/13 03:05:00;;;;;;;24.33;11.68;;;12.40;99.90;;;;;;5029467;28;20478;-82
2023/10/13 03:07:29;;;;;;;23.38;11.35;;;12.40;99.90;;;;;;5032185;28;20136;-82
2023/10/13 03:10:00;;;;;;;28.08;11.00;;;12.40;99.90;;;;;;5030763;28;20152;-82
2023/10/13 03:12:26;;;;;;;25.02;10.98;;;12.40;99.90;;;;;;5031308;28;20021;-82
2023/10/13 03:14:57;;;;;;;23.35;10.75;;;12.50;99.90;;;;;;5030308;28;20091;-82
2023/10/13 03:17:33;;;;;;;23.40;11.00;;;12.50;99.90;;;;;;5030467;28;20496;-83
2023/10/13 03:19:59;;;;;;;20.27;9.63;;;12.50;99.90;;;;;;5025049;28;20067;-82
2023/10/13 03:22:31;;;;;;;21.63;10.25;;;12.50;99.90;;;;;;5030582;28;20029;-82
2023/10/13 03:25:09;;;;;;;19.60;10.10;;;12.50;99.90;;;;;;5029921;28;20025;-82
2023/10/13 03:30:16;;;;;;;23.45;10.93;;;12.60;99.90;;;;;;5028671;28;20377;-81
2023/10/13 03:32:53;;;;;;;25.67;11.18;;;12.60;99.90;;;;;;5030085;28;20026;-81
2023/10/13 03:35:25;;;;;;;21.23;11.23;;;12.60;99.90;;;;;;5030385;28;20064;-82
2023/10/13 03:37:54;;;;;;;19.10;10.63;;;12.60;99.90;;;;;;5026571;28;20029;-83
2023/10/13 03:43:04;;;;;;;19.60;9.63;;;12.70;99.90;;;;;;5030651;28;20065;-83
2023/10/13 03:45:42;;;;;;;19.02;10.45;;;12.70;99.90;;;;;;5030232;28;20025;-83
2023/10/13 03:51:02;;;;;;;16.25;9.05;;;12.70;99.90;;;;;;5032525;28;20022;-83
2023/10/13 03:53:33;;;;;;;19.92;9.85;;;12.70;99.90;;;;;;5032965;28;20051;-84
2023/10/13 03:56:08;;;;;;;15.02;8.50;;;12.80;99.90;;;;;;5032688;28;20100;-83
2023/10/13 03:58:48;;;;;;;12.88;7.90;;;12.80;99.90;;;;;;5029660;28;20033;-83
2023/10/13 04:01:17;;;;;;;12.77;7.70;;;12.80;99.90;;;;;;5031296;28;20036;-84
2023/10/13 04:04:02;;;;;;;13.60;8.05;;;12.90;99.90;;;;;;5030782;28;20057;-83
2023/10/13 04:17:29;;;;;;;9.00;5.90;;;12.90;99.90;;;;;;5036339;28;20036;-83
2023/10/13 04:33:35;;;;;;;15.32;6.80;;;13.10;99.90;;;;;;5029582;28;20014;-84
2023/10/13 04:36:13;;;;;;;11.73;7.15;;;13.20;99.90;;;;;;5027751;28;20030;-84
2023/10/13 04:39:09;;;;;;;11.15;6.50;;;13.20;99.90;;;;;;5030822;28;20528;-84
2023/10/13 04:41:41;;;;;;;10.02;6.20;;;13.20;99.90;;;;;;5027487;28;20056;-86
2023/10/13 04:49:28;;;;;;;13.10;7.93;;;13.30;99.90;;;;;;5029404;28;20032;-83
2023/10/13 04:51:58;;;;;;;11.35;7.00;;;13.20;99.90;;;;;;5031958;28;20032;-84
2023/10/13 04:54:26;;;;;;;11.18;7.75;;;13.30;99.90;;;;;;5044268;28;20493;-86
2023/10/13 04:59:37;;;;;;;10.57;7.82;;;13.30;99.90;;;;;;5047519;28;20575;-84
2023/10/13 05:02:42;;;;;;;11.52;7.75;;;13.40;99.90;;;;;;5037024;28;20022;-85
2023/10/13 05:49:50;;;;;;;17.33;12.85;;;13.90;99.90;;;;;;5016395;28;20489;-85
2023/10/13 06:30:59;;;;;;;31.85;19.73;;;14.70;99.90;;;;;;5033438;28;20063;-86
2023/10/13 06:33:28;;;;;;;35.85;19.73;;;14.70;99.90;;;;;;5040054;28;20520;-85
2023/10/13 06:35:56;;;;;;;31.17;18.20;;;14.80;99.90;;;;;;5036541;28;20029;-84
2023/10/13 06:38:22;;;;;;;37.05;19.88;;;14.80;99.90;;;;;;5035990;28;20045;-85
2023/10/13 06:40:50;;;;;;;31.27;19.02;;;14.90;99.90;;;;;;5037375;28;20110;-85
2023/10/13 06:43:16;;;;;;;33.72;19.55;;;14.90;99.90;;;;;;5033863;28;20029;-86
2023/10/13 06:46:00;;;;;;;32.08;20.10;;;14.90;99.90;;;;;;5035559;28;20026;-86
2023/10/13 06:48:26;;;;;;;32.42;19.83;;;15.00;99.90;;;;;;5030501;28;20079;-87
2023/10/13 06:50:52;;;;;;;31.33;20.05;;;15.00;99.90;;;;;;5034416;28;20017;-85
2023/10/13 06:53:20;;;;;;;31.70;19.15;;;15.00;99.90;;;;;;5033105;28;20022;-87
2023/10/13 06:55:47;;;;;;;32.35;19.30;;;15.00;99.90;;;;;;5030445;28;20028;-85
2023/10/13 06:58:14;;;;;;;31.20;18.77;;;15.00;99.90;;;;;;5033879;28;20264;-86
2023/10/13 07:00:52;;;;;;;33.75;19.48;;;15.00;99.90;;;;;;5034672;28;20056;-86
2023/10/13 07:03:19;;;;;;;34.97;19.98;;;15.10;99.90;;;;;;5031080;28;20026;-87
2023/10/13 07:05:47;;;;;;;34.20;19.55;;;15.10;99.90;;;;;;5036563;28;20051;-87
2023/10/13 07:08:14;;;;;;;30.65;19.15;;;15.10;99.90;;;;;;5034704;28;20076;-86
2023/10/13 07:11:02;;;;;;;32.05;18.98;;;15.20;99.90;;;;;;5033548;28;20014;-86
2023/10/13 07:13:28;;;;;;;29.20;17.73;;;15.10;99.90;;;;;;5032348;28;20117;-87
2023/10/13 07:16:00;;;;;;;27.80;18.75;;;15.20;99.90;;;;;;5030897;28;20061;-86
2023/10/13 07:18:25;;;;;;;28.77;18.50;;;15.20;99.90;;;;;;5029027;28;20026;-86
2023/10/13 07:20:52;;;;;;;29.85;18.73;;;15.20;99.90;;;;;;5034350;28;20612;-87
2023/10/13 07:23:17;;;;;;;30.90;18.15;;;15.20;99.90;;;;;;5033492;28;20099;-85
2023/10/13 07:25:57;;;;;;;28.33;19.63;;;15.20;99.90;;;;;;5033428;28;20449;-85
2023/10/13 07:28:23;;;;;;;32.50;18.38;;;15.30;99.90;;;;;;5032938;28;20168;-85
2023/10/13 07:33:20;;;;;;;28.92;19.55;;;15.30;99.90;;;;;;5033429;28;20022;-85
2023/10/13 07:35:50;;;;;;;28.90;19.50;;;15.40;99.90;;;;;;5030986;28;20028;-87
2023/10/13 07:38:16;;;;;;;27.65;19.23;;;15.40;99.90;;;;;;5030929;28;20527;-87
2023/10/13 07:40:50;;;;;;;32.92;20.98;;;15.40;99.90;;;;;;5031715;28;20029;-87
2023/10/13 07:43:21;;;;;;;27.25;19.83;;;15.40;99.90;;;;;;5032038;28;20018;-89
2023/10/13 07:45:58;;;;;;;30.63;19.25;;;15.40;99.90;;;;;;5032014;28;20032;-86
2023/10/13 07:48:25;;;;;;;25.58;18.33;;;15.40;99.90;;;;;;5031368;28;20029;-86
2023/10/13 07:51:01;;;;;;;26.77;18.13;;;15.40;99.90;;;;;;5036164;28;20014;-86
2023/10/13 07:53:29;;;;;;;;;;;15.40;99.90;;;;;;5030645;28;20532;-86
2023/10/13 07:55:55;;;;;;;26.63;16.67;;;15.50;99.90;;;;;;5033651;28;19909;-86
2023/10/13 07:58:24;;;;;;;25.35;17.23;;;15.50;99.90;;;;;;5029356;28;20017;-88
2023/10/13 08:01:00;;;;;;;25.20;16.30;;;15.50;99.90;;;;;;5031325;28;20021;-87
2023/10/13 08:03:35;;;;;;;20.73;15.10;;;15.50;99.90;;;;;;5028756;28;20493;-85
2023/10/13 08:06:19;;;;;;;23.20;15.23;;;15.50;99.90;;;;;;5030350;28;20064;-86
2023/10/13 08:08:49;;;;;;;22.95;14.82;;;15.50;99.90;;;;;;5028963;28;20017;-87
2023/10/13 08:13:53;;;;;;;20.58;14.48;;;15.50;99.90;;;;;;5029251;28;20017;-86
2023/10/13 08:16:22;;;;;;;20.58;14.82;;;15.60;99.90;;;;;;5026128;28;20026;-86
2023/10/13 08:18:52;;;;;;;23.60;14.65;;;15.60;99.90;;;;;;5028799;28;20028;-86
2023/10/13 08:21:22;;;;;;;16.17;13.18;;;15.60;99.90;;;;;;5026435;28;20026;-86
2023/10/13 08:26:56;;;;;;;20.35;13.55;;;15.60;99.90;;;;;;5028127;28;20017;-86
2023/10/13 09:01:48;;;;;;;9.25;8.18;;;15.60;99.90;;;;;;5037317;28;20044;-85
2023/10/13 09:12:19;;;;;;;6.22;5.63;;;15.60;99.90;;;;;;5048210;28;20028;-86
2023/10/13 09:14:58;;;;;;;6.22;5.63;;;15.60;99.90;;;;;;5032138;28;20083;-86
2023/10/13 09:17:34;;;;;;;6.30;5.68;;;15.60;99.90;;;;;;5035860;28;20036;-87
2023/10/13 09:22:54;;;;;;;8.07;5.90;;;15.70;99.90;;;;;;5034588;28;20043;-86
2023/10/13 09:25:22;;;;;;;7.97;5.50;;;15.70;99.90;;;;;;5036381;28;20045;-87
2023/10/13 09:27:53;;;;;;;5.47;4.97;;;15.80;99.90;;;;;;5035180;28;20029;-87
2023/10/13 09:30:22;;;;;;;6.18;5.45;;;15.80;99.90;;;;;;5033969;28;20550;-87
2023/10/13 09:33:04;;;;;;;8.13;5.90;;;15.90;99.90;;;;;;5034136;28;20030;-87
2023/10/13 09:35:33;;;;;;;8.45;5.97;;;15.90;99.90;;;;;;5034835;28;20025;-87
2023/10/13 09:38:02;;;;;;;8.27;6.30;;;16.00;99.90;;;;;;5040489;28;20029;-87
2023/10/13 09:43:05;;;;;;;7.22;6.28;;;16.00;99.90;;;;;;5032511;28;20028;-87
2023/10/13 09:45:43;;;;;;;8.23;6.20;;;16.10;99.90;;;;;;5036432;28;20021;-85
2023/10/13 09:48:21;;;;;;;8.25;7.20;;;16.20;99.90;;;;;;5036734;28;20029;-87
2023/10/13 09:50:48;;;;;;;7.82;6.47;;;16.20;99.90;;;;;;5046281;28;20028;-86
2023/10/13 09:53:18;;;;;;;9.82;7.07;;;16.30;99.90;;;;;;5036885;28;20045;-86
2023/10/13 09:56:14;;;;;;;12.75;8.20;;;16.30;99.90;;;;;;5034372;28;20071;-86
2023/10/13 09:58:53;;;;;;;8.93;6.47;;;16.30;99.90;;;;;;5048672;28;20028;-85
2023/10/13 10:01:37;;;;;;;8.77;6.78;;;16.30;99.90;;;;;;5034485;28;20451;-87
2023/10/13 10:04:23;;;;;;;8.02;5.93;;;16.30;99.90;;;;;;5031755;28;20113;-87
2023/10/13 10:07:00;;;;;;;7.73;6.30;;;16.30;99.90;;;;;;5033696;28;20700;-86
2023/10/13 10:09:39;;;;;;;11.63;6.35;;;16.30;99.90;;;;;;5047956;28;20017;-88
2023/10/13 10:12:28;;;;;;;9.02;6.13;;;16.30;99.90;;;;;;5034424;28;20025;-88
2023/10/13 10:15:06;;;;;;;7.68;5.57;;;16.30;99.90;;;;;;5029244;28;20061;-87
2023/10/13 10:17:43;;;;;;;7.63;5.85;;;16.30;99.90;;;;;;5033432;28;20028;-86
2023/10/13 10:20:19;;;;;;;8.52;5.43;;;16.30;99.90;;;;;;5033792;28;20021;-84
2023/10/13 10:22:59;;;;;;;7.85;5.50;;;16.30;99.90;;;;;;5032180;28;20018;-87
2023/10/13 10:25:34;;;;;;;11.77;5.63;;;16.20;99.90;;;;;;5034585;28;20485;-87
2023/10/13 10:28:04;;;;;;;5.40;4.82;;;16.20;99.90;;;;;;5030352;28;20049;-86
2023/10/13 10:30:33;;;;;;;11.13;5.88;;;16.20;99.90;;;;;;5032910;28;20065;-85
2023/10/13 10:33:00;;;;;;;9.77;5.18;;;16.20;99.90;;;;;;5033227;28;20445;-86
2023/10/13 10:35:29;;;;;;;8.40;5.13;;;16.30;99.90;;;;;;5028268;28;20508;-86
2023/10/13 10:38:24;;;;;;;8.40;4.97;;;16.30;99.90;;;;;;5032240;28;20498;-86
2023/10/13 10:40:58;;;;;;;5.80;5.18;;;16.40;99.90;;;;;;5031288;28;20533;-87
2023/10/13 10:43:29;;;;;;;7.60;5.75;;;16.40;99.90;;;;;;5032037;28;20095;-87
2023/10/13 10:46:02;;;;;;;12.07;6.10;;;16.50;99.90;;;;;;5028861;28;20034;-86
2023/10/13 10:48:38;;;;;;;10.05;5.35;;;16.50;99.90;;;;;;5029370;28;20056;-86
2023/10/13 10:51:07;;;;;;;7.03;4.88;;;16.50;99.90;;;;;;5028822;28;20017;-86
2023/10/13 10:53:43;;;;;;;12.13;7.47;;;16.50;99.90;;;;;;5030524;28;20030;-86
2023/10/13 10:56:19;;;;;;;8.85;6.40;;;16.50;99.90;;;;;;5030995;28;20033;-86
2023/10/13 10:58:55;;;;;;;8.43;6.38;;;16.60;99.90;;;;;;5026927;28;20035;-85
2023/10/13 11:01:33;;;;;;;8.15;5.72;;;16.60;99.90;;;;;;5027890;28;20057;-86
2023/10/13 11:04:14;;;;;;;6.68;5.88;;;16.70;99.90;;;;;;5027616;28;20366;-86
2023/10/13 11:06:46;;;;;;;6.28;5.40;;;16.70;99.90;;;;;;5030209;28;20462;-86
2023/10/13 11:10:06;;;;;;;6.05;4.82;;;16.80;99.90;;;;;;5049774;28;20029;-86
2023/10/13 11:12:14;;;;;;;8.68;5.68;;;16.80;99.90;;;;;;5051969;28;20022;-86
2023/10/13 11:14:40;;;;;;;6.40;5.78;;;16.90;99.90;;;;;;5035227;28;20024;-86
2023/10/13 11:17:19;;;;;;;6.38;5.43;;;16.90;99.90;;;;;;5034448;28;20116;-86
2023/10/13 11:19:44;;;;;;;9.25;5.40;;;17.00;99.90;;;;;;5032406;28;20017;-84
2023/10/13 11:22:33;;;;;;;7.25;5.65;;;17.00;99.90;;;;;;5031852;28;20499;-86
2023/10/13 11:25:00;;;;;;;10.93;6.03;;;17.10;99.90;;;;;;5031913;28;20322;-85
2023/10/13 11:30:20;;;;;;;7.38;5.68;;;17.10;99.90;;;;;;5032378;28;20022;-84
2023/10/13 11:32:59;;;;;;;12.27;6.43;;;17.20;99.90;;;;;;5032019;28;20025;-85
2023/10/13 11:35:25;;;;;;;11.63;7.03;;;17.30;99.90;;;;;;5029136;28;20036;-84
2023/10/13 11:38:03;;;;;;;12.75;7.82;;;17.30;99.90;;;;;;5029481;28;20040;-86
2023/10/13 11:40:59;;;;;;;11.43;7.82;;;17.40;99.90;;;;;;5030926;28;20040;-85
2023/10/13 11:43:26;;;;;;;;;;;17.40;99.90;;;;;;5028632;28;20025;-83
2023/10/13 11:48:41;;;;;;;8.27;6.15;;;17.50;99.90;;;;;;5026988;28;20071;-83
2023/10/13 11:51:17;;;;;;;8.70;6.20;;;17.60;99.90;;;;;;5027410;28;20029;-85
2023/10/13 11:53:51;;;;;;;;;;;17.60;99.90;;;;;;5027255;28;20057;-81
2023/10/13 11:56:20;;;;;;;11.70;6.45;;;17.80;99.90;;;;;;5028768;28;19956;-84
2023/10/13 11:58:46;;;;;;;12.77;6.72;;;17.90;99.90;;;;;;5030479;28;20635;-85
2023/10/13 12:11:50;;;;;;;8.77;4.70;;;18.10;99.90;;;;;;5031422;28;20405;-84
2023/10/13 12:14:17;;;;;;;7.63;5.50;;;18.10;99.90;;;;;;5026280;28;20025;-86
2023/10/13 12:16:52;;;;;;;9.48;5.20;;;18.20;99.90;;;;;;5035511;28;20028;-85
2023/10/13 12:19:23;;;;;;;9.27;5.90;;;18.20;99.90;;;;;;5033526;28;20108;-85
2023/10/13 12:22:04;;;;;;;5.50;4.97;;;18.30;99.90;;;;;;5037294;28;20030;-85
2023/10/13 12:27:19;;;;;;;12.02;5.45;;;18.40;99.90;;;;;;5031526;28;20446;-86
2023/10/13 12:29:49;;;;;;;8.85;4.95;;;18.40;99.90;;;;;;5031347;28;20029;-86
2023/10/13 12:32:20;;;;;;;9.70;4.75;;;18.40;99.90;;;;;;5025962;28;20013;-86
2023/10/13 12:35:35;;;;;;;12.90;5.60;;;18.40;99.90;;;;;;5028183;28;20474;-85
2023/10/13 12:51:40;;;;;;;10.43;4.80;;;18.40;99.90;;;;;;5035153;28;20037;-84
2023/10/13 12:54:19;;;;;;;16.45;4.53;;;18.40;99.90;;;;;;5033975;28;20088;-85
2023/10/13 12:56:45;;;;;;;9.48;5.00;;;18.50;99.90;;;;;;5033312;28;20021;-85
2023/10/13 12:59:13;;;;;;;7.90;3.95;;;18.50;99.90;;;;;;5037611;28;20022;-85
2023/10/13 13:01:43;;;;;;;6.57;4.82;;;18.50;99.90;;;;;;5035509;28;20020;-84
2023/10/13 13:04:16;;;;;;;10.52;5.38;;;18.60;99.90;;;;;;5036174;28;20022;-86
2023/10/13 13:06:42;;;;;;;7.90;4.38;;;18.60;99.90;;;;;;5035456;28;20029;-86
2023/10/13 13:09:10;;;;;;;6.35;4.50;;;18.60;99.90;;;;;;5036708;28;20026;-85
2023/10/13 13:11:42;;;;;;;12.75;4.65;;;18.60;99.90;;;;;;5040069;28;20044;-85
2023/10/13 13:14:07;;;;;;;9.85;4.88;;;18.60;99.90;;;;;;5033533;28;20115;-85
2023/10/13 13:16:33;;;;;;;5.75;4.57;;;18.60;99.90;;;;;;5045452;28;20016;-89
2023/10/13 13:19:03;;;;;;;12.48;4.47;;;18.70;99.90;;;;;;5042457;28;20607;-85
2023/10/13 13:21:29;;;;;;;7.45;4.57;;;18.80;99.90;;;;;;5040911;28;20112;-85
2023/10/13 13:23:57;;;;;;;7.90;3.92;;;18.80;99.90;;;;;;5044705;28;20017;-84
2023/10/13 13:26:23;;;;;;;7.50;4.93;;;18.80;99.90;;;;;;5039642;28;20029;-84
2023/10/13 13:28:52;;;;;;;6.07;4.18;;;18.80;99.90;;;;;;5039258;28;20025;-85
2023/10/13 13:31:29;;;;;;;8.43;5.05;;;18.80;99.90;;;;;;5042296;28;20558;-85
2023/10/13 13:33:55;;;;;;;7.15;4.22;;;18.80;99.90;;;;;;5049252;28;20036;-85
2023/10/13 13:36:22;;;;;;;5.97;4.28;;;18.80;99.90;;;;;;5036379;28;20370;-84
2023/10/13 13:38:54;;;;;;;7.65;4.13;;;18.80;99.90;;;;;;5036797;28;20366;-85
2023/10/13 13:41:20;;;;;;;6.95;4.13;;;18.90;99.90;;;;;;5034446;28;20109;-86
2023/10/13 13:43:54;;;;;;;6.72;4.95;;;18.90;99.90;;;;;;5036304;28;20425;-85
2023/10/13 13:46:24;;;;;;;9.45;4.90;;;18.90;99.90;;;;;;5031650;28;20021;-85
2023/10/13 13:48:57;;;;;;;8.35;4.45;;;18.90;99.90;;;;;;5034022;28;20036;-85
2023/10/13 13:51:27;;;;;;;11.32;5.00;;;18.90;99.90;;;;;;5032571;28;20029;-83
2023/10/13 13:53:54;;;;;;;8.85;4.40;;;18.90;99.90;;;;;;5029929;28;20028;-86
2023/10/13 13:56:20;;;;;;;6.40;3.92;;;18.90;99.90;;;;;;5031449;28;20028;-85
2023/10/13 13:58:46;;;;;;;7.55;4.22;;;18.90;99.90;;;;;;5030998;28;20021;-85
2023/10/13 14:01:12;;;;;;;8.85;4.47;;;18.90;99.90;;;;;;5034200;28;20037;-85
2023/10/13 14:03:50;;;;;;;7.25;4.88;;;18.90;99.90;;;;;;5033731;28;20043;-85
2023/10/13 14:06:23;;;;;;;5.20;4.45;;;18.90;99.90;;;;;;5032319;28;20036;-85
2023/10/13 14:08:56;;;;;;;9.90;4.60;;;18.90;99.90;;;;;;5033269;28;20536;-85
2023/10/13 14:14:12;;;;;;;8.48;5.95;;;18.90;99.90;;;;;;5033482;28;20017;-85
2023/10/13 14:16:44;;;;;;;10.55;4.70;;;18.90;99.90;;;;;;5029703;28;20021;-86
2023/10/13 14:19:19;;;;;;;5.75;4.22;;;18.90;99.90;;;;;;5035170;28;20037;-85
2023/10/13 14:21:45;;;;;;;8.53;4.73;;;18.80;99.90;;;;;;5034341;28;20097;-84
2023/10/13 14:24:14;;;;;;;9.52;4.45;;;18.80;99.90;;;;;;5033640;28;20309;-84
2023/10/13 14:26:42;;;;;;;9.82;4.88;;;18.80;99.90;;;;;;5034450;28;20371;-86
2023/10/13 14:29:09;;;;;;;9.57;4.28;;;18.80;99.90;;;;;;5034691;28;20029;-84
2023/10/13 14:31:39;;;;;;;13.98;5.25;;;18.80;99.90;;;;;;5039375;28;20441;-85
2023/10/13 14:34:06;;;;;;;7.88;5.00;;;18.70;99.90;;;;;;5039988;28;20021;-85
2023/10/13 14:36:35;;;;;;;8.60;4.90;;;18.70;99.90;;;;;;5043462;28;20017;-85
2023/10/13 14:39:02;;;;;;;7.22;4.80;;;18.70;99.90;;;;;;5040846;28;20037;-85
2023/10/13 14:41:27;;;;;;;8.35;4.90;;;18.70;99.90;;;;;;5039936;28;20052;-84
2023/10/13 14:43:56;;;;;;;10.05;4.80;;;18.60;99.90;;;;;;5041334;28;20366;-86
2023/10/13 14:46:25;;;;;;;9.43;4.80;;;18.60;99.90;;;;;;5031492;28;20504;-85
2023/10/13 14:48:53;;;;;;;10.85;4.95;;;18.60;99.90;;;;;;5037466;28;20402;-85
2023/10/13 14:51:19;;;;;;;8.73;5.03;;;18.60;99.90;;;;;;5038108;28;20025;-85
2023/10/13 14:53:46;;;;;;;7.95;5.22;;;18.70;99.90;;;;;;5041441;28;20025;-84
2023/10/13 14:56:15;;;;;;;7.32;4.07;;;18.70;99.90;;;;;;5038416;28;20061;-85
2023/10/13 14:58:42;;;;;;;9.73;5.32;;;18.60;99.90;;;;;;5034023;28;20022;-85
2023/10/13 15:01:16;;;;;;;9.60;5.82;;;18.60;99.90;;;;;;5037636;28;20401;-86
2023/10/13 15:03:47;;;;;;;8.70;4.95;;;18.60;99.90;;;;;;5038458;28;20394;-86
2023/10/13 15:06:20;;;;;;;8.07;4.60;;;18.60;99.90;;;;;;5045705;28;20433;-85
2023/10/13 15:08:47;;;;;;;11.60;5.53;;;18.50;99.90;;;;;;5038060;28;20029;-85
2023/10/13 15:11:13;;;;;;;7.60;4.85;;;18.50;99.90;;;;;;5039936;28;20488;-84
2023/10/13 15:13:42;;;;;;;8.93;6.05;;;18.50;99.90;;;;;;5039151;28;20021;-84
2023/10/13 15:16:17;;;;;;;6.55;4.30;;;18.50;99.90;;;;;;5040053;28;20036;-85
2023/10/13 15:18:51;;;;;;;10.23;4.43;;;18.50;99.90;;;;;;5033328;28;20021;-85
2023/10/13 15:21:26;;;;;;;11.98;5.63;;;18.50;99.90;;;;;;5032792;28;20264;-84
2023/10/13 15:23:59;;;;;;;14.50;5.70;;;18.50;99.90;;;;;;5038407;28;20093;-85
2023/10/13 15:26:29;;;;;;;9.57;5.50;;;18.50;99.90;;;;;;5029356;28;20091;-85
2023/10/13 15:28:55;;;;;;;12.32;5.53;;;18.60;99.90;;;;;;5040255;28;20020;-84
2023/10/13 15:34:00;;;;;;;11.05;4.63;;;18.70;99.90;;;;;;5037128;28;20017;-84
2023/10/13 15:36:26;;;;;;;11.73;4.88;;;18.70;99.90;;;;;;5037399;28;20489;-84
2023/10/13 15:38:53;;;;;;;11.35;5.45;;;18.70;99.90;;;;;;5038746;28;20057;-85
2023/10/13 15:41:22;;;;;;;7.82;4.40;;;18.70;99.90;;;;;;5036175;28;20112;-85
2023/10/13 15:43:51;;;;;;;8.52;4.88;;;18.70;99.90;;;;;;5038265;28;20423;-86
2023/10/13 15:46:26;;;;;;;11.90;6.18;;;18.70;99.90;;;;;;5038981;28;20029;-82
2023/10/13 15:48:53;;;;;;;5.90;4.53;;;18.70;99.90;;;;;;5039261;28;20051;-83
2023/10/13 15:51:19;;;;;;;10.05;5.03;;;18.70;99.90;;;;;;5024473;28;20256;-86
2023/10/13 15:53:48;;;;;;;8.38;5.00;;;18.80;99.90;;;;;;5038655;28;20079;-83
2023/10/13 15:56:17;;;;;;;8.93;4.57;;;18.80;99.90;;;;;;5033904;28;20049;-84
2023/10/13 15:58:46;;;;;;;8.00;4.60;;;18.80;99.90;;;;;;5036799;28;20025;-84
2023/10/13 16:01:13;;;;;;;11.60;5.35;;;18.90;99.90;;;;;;5040873;28;20035;-85
2023/10/13 16:03:43;;;;;;;8.75;4.97;;;18.90;99.90;;;;;;5036047;28;20029;-85
2023/10/13 16:06:10;;;;;;;13.93;5.07;;;18.90;99.90;;;;;;5034243;28;20025;-85
2023/10/13 16:08:42;;;;;;;11.50;5.60;;;18.80;99.90;;;;;;5048213;28;20104;-84
2023/10/13 16:11:13;;;;;;;11.52;4.93;;;18.90;99.90;;;;;;5051324;28;20025;-85
2023/10/13 16:13:42;;;;;;;9.02;5.53;;;18.80;99.90;;;;;;5035028;28;20542;-86
2023/10/13 16:16:15;;;;;;;9.57;5.15;;;18.80;99.90;;;;;;5043700;28;20036;-85
2023/10/13 16:18:43;;;;;;;11.57;5.13;;;18.80;99.90;;;;;;5036773;28;20505;-83
2023/10/13 16:21:12;;;;;;;8.55;5.05;;;18.90;99.90;;;;;;5042149;28;20074;-84
2023/10/13 16:23:38;;;;;;;6.80;5.13;;;18.90;99.90;;;;;;5034138;28;20036;-83
2023/10/13 16:26:07;;;;;;;11.75;4.90;;;18.90;99.90;;;;;;5030549;28;20301;-83
2023/10/13 16:28:35;;;;;;;9.45;4.70;;;18.90;99.90;;;;;;5035668;28;20071;-83
2023/10/13 16:31:02;;;;;;;11.48;5.15;;;18.90;99.90;;;;;;5033529;28;20104;-84
2023/10/13 16:33:28;;;;;;;10.90;5.50;;;18.90;99.90;;;;;;5035160;28;20541;-83
2023/10/13 16:35:56;;;;;;;13.90;5.95;;;18.90;99.90;;;;;;5030409;28;20049;-82
2023/10/13 16:38:24;;;;;;;12.13;4.57;;;18.90;99.90;;;;;;5031297;28;20037;-83
2023/10/13 16:40:52;;;;;;;6.95;4.70;;;19.00;99.90;;;;;;5032181;28;20404;-84
2023/10/13 16:43:18;;;;;;;11.98;4.47;;;19.00;99.90;;;;;;5030370;28;20086;-83